Flight Track Log - Related Links

Times and Time Zones

All times are in EDT time to prevent confusion due to time zone crossing. See the ASH3770 flight status page for this flight to view local times or setup timezone preferences in your user account.

Time Position Orientation Groundspeed Altitude Reporting Facility
EDT Latitude Longitude Course Direction KTS MPH feet Rate Location/Type
Thu 12:50:40 PM 38.8833 -77.4667 288° West 197 227 2,300  Level Potomac TRACON
Thu 12:51:40 PM 38.8333 -77.5167 218° Southwest 234 269 4,700 2,400 Climbing Potomac TRACON
Thu 12:52:40 PM 38.8000 -77.5833 237° Southwest 240 276 7,100 2,421 Climbing Potomac TRACON
Thu 12:53:34 PM 38.7667 -77.6500 237° Southwest 257 296 9,300 1,673 Climbing Potomac TRACON
Thu 12:54:24 PM 38.7653 -77.7294 269° West 277 319 10,000 382 Climbing Washington Center
Thu 12:55:24 PM 38.7775 -77.8525 277° West 356 410 10,000 700 Level Washington Center
Thu 12:56:00 PM 38.8422 -78.1688 288° West  Level FlightAware Approximate
Thu 12:56:24 PM 38.8022 -77.9811 284° West 369 425 11,400  Level Washington Center
Thu 12:57:24 PM 38.8328 -78.1153 286° West 380 437 12,900 1,650 Climbing Washington Center
Thu 12:58:24 PM 38.8528 -78.2492 281° West 386 444 14,700 1,900 Climbing Washington Center
Thu 12:59:24 PM 38.8517 -78.3853 269° West 386 444 16,700 1,850 Climbing Washington Center
Thu 01:00:24 PM 38.8506 -78.5239 269° West 391 450 18,400 1,800 Climbing Washington Center
Thu 01:01:24 PM 38.8453 -78.6569 267° West 381 438 20,300 1,700 Climbing Washington Center
Thu 01:02:24 PM 38.8272 -78.7894 260° West 381 438 21,800 1,450 Climbing Washington Center
Thu 01:03:24 PM 38.8089 -78.9217 260° West 387 445 23,200 1,250 Climbing Washington Center
Thu 01:04:24 PM 38.7883 -79.0594 259° West 387 445 24,300 1,150 Climbing Washington Center
Thu 01:05:24 PM 38.7675 -79.1994 259° West 393 452 25,500 1,250 Climbing Washington Center
Thu 01:06:24 PM 38.7458 -79.3608 260° West 413 475 26,800 1,150 Climbing Washington Center
Thu 01:07:24 PM 38.7250 -79.4900 258° West 413 475 27,800 1,050 Climbing Washington Center
Thu 01:08:24 PM 38.7039 -79.6300 259° West 413 475 28,900 1,000 Climbing Washington Center
Thu 01:09:24 PM 38.6822 -79.7725 259° West 413 475 29,800 1,200 Climbing Washington Center
Thu 01:10:24 PM 38.6558 -79.9278 258° West 413 475 31,300 1,350 Climbing Washington Center
Thu 01:11:24 PM 38.6364 -80.0650 260° West 407 468 32,500 923 Climbing Washington Center
Thu 01:13:00 PM 38.5989 -80.2711 257° West 393 452 33,700 570 Climbing Indianapolis Center
Thu 01:14:02 PM 38.5786 -80.4036 259° West 394 453 34,000 145 Climbing Indianapolis Center
Thu 01:15:04 PM 38.5539 -80.5528 258° West 413 475 34,000  Level Indianapolis Center
Thu 01:16:05 PM 38.5297 -80.7033 258° West 430 495 34,000  Level Indianapolis Center
Thu 01:17:06 PM 38.5047 -80.8572 258° West 440 506 34,000  Level Indianapolis Center
Thu 01:18:08 PM 38.4783 -81.0147 258° West 450 518 34,000  Level Indianapolis Center
Thu 01:19:09 PM 38.4528 -81.1714 258° West 450 518 34,000  Level Indianapolis Center
Thu 01:20:11 PM 38.4197 -81.3597 257° West 450 518 34,000  Level Indianapolis Center
Thu 01:21:12 PM 38.3928 -81.5169 258° West 449 517 34,000  Level Indianapolis Center
Thu 01:22:14 PM 38.3661 -81.6744 258° West 450 518 34,000  Level Indianapolis Center
Thu 01:23:15 PM 38.3339 -81.8281 255° West 447 514 34,000  Level Indianapolis Center
Thu 01:24:17 PM 38.2914 -81.9783 250° West 450 518 34,000  Level Indianapolis Center
Thu 01:25:18 PM 38.2475 -82.1253 249° West 445 512 34,000  Level Indianapolis Center
Thu 01:26:20 PM 38.2075 -82.2753 251° West 447 514 34,000  Level Indianapolis Center
Thu 01:27:21 PM 38.1658 -82.4236 250° West 445 512 34,000  Level Indianapolis Center
Thu 01:28:22 PM 38.1194 -82.5828 250° West 447 514 34,000  Level Indianapolis Center
Thu 01:29:24 PM 38.0769 -82.7314 250° West 449 517 34,000 244 Level Indianapolis Center
Thu 01:30:25 PM 38.0342 -82.8792 250° West 448 516 34,500 585 Climbing Indianapolis Center
Thu 01:31:27 PM 37.9922 -83.0258 250° West 445 512 35,200 683 Climbing Indianapolis Center
Thu 01:32:28 PM 37.9494 -83.1700 249° West 439 505 35,900 390 Climbing Indianapolis Center
Thu 01:33:30 PM 37.9003 -83.3364 250° West 434 499 36,000 49 Climbing Indianapolis Center
Thu 01:34:31 PM 37.8578 -83.4797 249° West 436 502 36,000  Level Indianapolis Center
Thu 01:35:33 PM 37.8153 -83.6222 249° West 434 499 36,000  Level Indianapolis Center
Thu 01:36:34 PM 37.7731 -83.7647 249° West 434 499 36,000  Level Indianapolis Center
Thu 01:37:36 PM 37.7303 -83.9047 249° West 430 495 36,000  Level Indianapolis Center
Thu 01:38:37 PM 37.6881 -84.0458 249° West 429 494 36,000  Level Indianapolis Center
Thu 01:39:39 PM 37.6436 -84.1875 248° West 432 497 36,000  Level Indianapolis Center
Thu 01:40:40 PM 37.5942 -84.3536 249° West 434 499 36,000  Level Indianapolis Center
Thu 01:41:41 PM 37.5508 -84.4925 249° West 429 494 36,000  Level Indianapolis Center
Thu 01:42:43 PM 37.5069 -84.6347 249° West 433 498 36,000  Level Indianapolis Center
Thu 01:43:44 PM 37.4633 -84.7767 249° West 433 498 36,000  Level Indianapolis Center
Thu 01:44:45 PM 37.4186 -84.9158 248° West 431 496 36,000  Level Indianapolis Center
Thu 01:45:47 PM 37.3758 -85.0561 249° West 431 496 36,000  Level Indianapolis Center
Thu 01:46:48 PM 37.3311 -85.1953 248° West 430 495 36,000  Level Indianapolis Center
Thu 01:47:50 PM 37.2881 -85.3339 249° West 425 489 36,000  Level Indianapolis Center
Thu 01:48:51 PM 37.2361 -85.4958 248° West 429 494 36,000  Level Indianapolis Center
Thu 01:49:53 PM 37.1922 -85.6389 249° West 429 494 36,000  Level Memphis Center
Thu 01:50:53 PM 37.1472 -85.7767 248° West 437 503 36,000  Level Memphis Center
Thu 01:51:53 PM 37.1025 -85.9172 248° West 437 503 36,000  Level Memphis Center
Thu 01:52:53 PM 37.0572 -86.0522 247° West 437 503 36,000  Level Memphis Center
Thu 01:53:53 PM 37.0119 -86.1925 248° West 437 503 36,000  Level Memphis Center
Thu 01:54:53 PM 36.9722 -86.3167 248° West 437 503 36,000  Level Memphis Center
Thu 01:55:53 PM 36.9225 -86.4514 245° Southwest 437 503 36,000  Level Memphis Center
Thu 01:56:53 PM 36.8808 -86.5883 249° West 437 503 36,000  Level Memphis Center
Thu 01:57:53 PM 36.8561 -86.7347 258° West 430 495 36,000  Level Memphis Center
Thu 01:58:53 PM 36.8311 -86.8808 258° West 430 495 36,000  Level Memphis Center
Thu 01:59:53 PM 36.8058 -87.0244 258° West 430 495 36,000  Level Memphis Center
Thu 02:00:53 PM 36.7825 -87.1653 258° West 430 495 36,000  Level Memphis Center
Thu 02:01:53 PM 36.7569 -87.3089 258° West 430 495 36,000  Level Memphis Center
Thu 02:02:53 PM 36.6972 -87.4353 240° Southwest 419 482 36,000  Level Memphis Center
Thu 02:03:53 PM 36.6272 -87.5517 233° Southwest 425 489 36,000  Level Memphis Center
Thu 02:04:53 PM 36.5567 -87.6678 233° Southwest 425 489 36,000  Level Memphis Center
Thu 02:05:53 PM 36.4861 -87.7836 233° Southwest 430 495 36,000  Level Memphis Center
Thu 02:06:53 PM 36.4094 -87.9072 232° Southwest 421 484 36,000 350 Level Memphis Center
Thu 02:07:53 PM 36.3408 -88.0228 234° Southwest 421 484 36,700 800 Climbing Memphis Center
Thu 02:08:53 PM 36.2742 -88.1328 233° Southwest 413 475 37,600 650 Climbing Memphis Center
Thu 02:09:53 PM 36.2111 -88.2322 232° Southwest 397 457 38,000 200 Climbing Memphis Center
Thu 02:10:53 PM 36.1442 -88.3369 232° Southwest 391 450 38,000  Level Memphis Center
Thu 02:11:53 PM 36.0772 -88.4489 234° Southwest 397 457 38,000  Level Memphis Center
Thu 02:12:53 PM 36.0078 -88.5583 232° Southwest 402 463 38,000  Level Memphis Center
Thu 02:13:53 PM 35.9386 -88.6675 232° Southwest 402 463 38,000  Level Memphis Center
Thu 02:14:53 PM 35.8692 -88.7764 232° Southwest 402 463 38,000  Level Memphis Center
Thu 02:15:53 PM 35.8036 -88.8828 233° Southwest 402 463 38,000  Level Memphis Center
Thu 02:16:53 PM 35.7361 -88.9886 232° Southwest 402 463 38,000  Level Memphis Center
Thu 02:17:53 PM 35.6847 -89.0714 233° Southwest 397 457 38,000  Level Memphis Center
Thu 02:18:53 PM 35.6211 -89.1822 235° Southwest 380 437 38,000  Level Memphis Center
Thu 02:19:53 PM 35.5594 -89.2800 232° Southwest 380 437 38,000  Level Memphis Center
Thu 02:20:53 PM 35.4936 -89.3803 231° Southwest 375 432 38,000  Level Memphis Center
Thu 02:21:53 PM 35.4339 -89.4806 234° Southwest 370 426 38,000  Level Memphis Center
Thu 02:22:53 PM 35.3678 -89.5806 231° Southwest 375 432 38,000  Level Memphis Center
Thu 02:23:53 PM 35.3081 -89.6803 234° Southwest 375 432 38,000  Level Memphis Center
Thu 02:24:53 PM 35.2439 -89.7825 232° Southwest 375 432 38,000  Level Memphis Center
Thu 02:25:53 PM 35.1794 -89.8819 232° Southwest 375 432 38,000  Level Memphis Center
Thu 02:26:53 PM 35.1153 -89.9814 232° Southwest 375 432 38,000  Level Memphis Center
Thu 02:27:53 PM 35.0447 -90.0908 232° Southwest 375 432 38,000  Level Memphis Center
Thu 02:28:53 PM 34.9800 -90.1897 231° Southwest 370 426 38,000  Level Memphis Center
Thu 02:29:53 PM 34.9156 -90.2911 232° Southwest 370 426 38,000  Level Memphis Center
Thu 02:30:53 PM 34.8508 -90.3850 230° Southwest 375 432 38,000  Level Memphis Center
Thu 02:31:53 PM 34.7861 -90.4836 231° Southwest 375 432 38,000  Level Memphis Center
Thu 02:32:53 PM 34.7192 -90.5844 231° Southwest 375 432 38,000  Level Memphis Center
Thu 02:33:53 PM 34.6564 -90.6828 232° Southwest 375 432 38,000  Level Memphis Center
Thu 02:34:53 PM 34.5914 -90.7783 230° Southwest 375 432 38,000  Level Memphis Center
Thu 02:35:53 PM 34.5242 -90.8814 232° Southwest 375 432 38,000  Level Memphis Center
Thu 02:36:53 PM 34.4572 -90.9767 230° Southwest 380 437 38,000  Level Memphis Center
Thu 02:37:53 PM 34.3919 -91.0794 232° Southwest 380 437 38,000  Level Memphis Center
Thu 02:38:53 PM 34.3267 -91.1769 231° Southwest 375 432 38,000  Level Memphis Center
Thu 02:39:53 PM 34.2675 -91.2644 231° Southwest 375 432 38,000  Level Memphis Center
Thu 02:40:53 PM 34.2022 -91.3617 231° Southwest 375 432 38,000  Level Memphis Center
Thu 02:41:53 PM 34.1367 -91.4564 230° Southwest 375 432 38,000  Level Memphis Center
Thu 02:42:53 PM 34.0689 -91.5558 231° Southwest 375 432 38,000  Level Memphis Center
Thu 02:43:53 PM 34.0033 -91.6550 231° Southwest 375 432 38,000  Level Memphis Center
Thu 02:44:53 PM 33.9417 -91.7494 232° Southwest 375 432 38,000  Level Memphis Center
Thu 02:45:53 PM 33.8758 -91.8483 231° Southwest 370 426 38,000  Level Memphis Center
Thu 02:46:53 PM 33.8100 -91.9472 231° Southwest 375 432 38,000  Level Memphis Center
Thu 02:47:53 PM 33.7708 -92.0589 247° West 375 432 38,000  Level Memphis Center
Thu 02:48:27 PM 33.7431 -92.1308 245° Southwest 374 430 38,000  Level Fort Worth Center
Thu 02:49:27 PM 33.7014 -92.2356 244° Southwest 368 423 38,000  Level Fort Worth Center
Thu 02:50:27 PM 33.6600 -92.3453 246° West 363 418 38,000  Level Fort Worth Center
Thu 02:51:27 PM 33.6206 -92.4522 246° West 363 418 38,000  Level Fort Worth Center
Thu 02:52:27 PM 33.5808 -92.5592 246° West 363 418 38,000  Level Fort Worth Center
Thu 02:53:27 PM 33.5369 -92.6689 244° Southwest 363 418 38,000  Level Fort Worth Center
Thu 02:54:27 PM 33.4950 -92.7756 245° Southwest 363 418 38,000  Level Fort Worth Center
Thu 02:55:27 PM 33.4550 -92.8822 246° West 363 418 38,000  Level Fort Worth Center
Thu 02:56:27 PM 33.4133 -92.9939 246° West 363 418 38,000  Level Fort Worth Center
Thu 02:57:27 PM 33.3711 -93.1006 245° Southwest 363 418 38,000  Level Fort Worth Center
Thu 02:58:27 PM 33.3267 -93.2094 244° Southwest 363 418 38,000  Level Fort Worth Center
Thu 02:59:27 PM 33.2844 -93.3183 245° Southwest 363 418 38,000  Level Fort Worth Center
Thu 03:00:27 PM 33.2419 -93.4272 245° Southwest 363 418 38,000  Level Fort Worth Center
Thu 03:01:27 PM 33.1975 -93.5383 244° Southwest 363 418 38,000  Level Fort Worth Center
Thu 03:02:27 PM 33.1547 -93.6469 245° Southwest 363 418 38,000  Level Fort Worth Center
Thu 03:03:27 PM 33.1100 -93.7578 244° Southwest 368 423 38,000  Level Fort Worth Center
Thu 03:04:27 PM 33.0750 -93.8486 245° Southwest 368 423 38,000  Level Fort Worth Center
Thu 03:05:27 PM 33.0283 -93.9694 245° Southwest 368 423 38,000  Level Fort Worth Center
Thu 03:06:27 PM 32.9856 -94.0800 245° Southwest 368 423 38,000  Level Fort Worth Center
Thu 03:07:27 PM 32.9403 -94.1856 243° Southwest 368 423 38,000  Level Fort Worth Center
Thu 03:08:27 PM 32.8969 -94.2936 244° Southwest 368 423 38,000  Level Fort Worth Center
Thu 03:09:27 PM 32.8558 -94.4039 246° West 368 423 38,000  Level Fort Worth Center
Thu 03:10:27 PM 32.8125 -94.5067 243° Southwest 368 423 38,000  Level Fort Worth Center
Thu 03:11:27 PM 32.7689 -94.6167 245° Southwest 368 423 38,000  Level Fort Worth Center
Thu 03:12:27 PM 32.7253 -94.7242 244° Southwest 368 423 38,000  Level Fort Worth Center
Thu 03:13:27 PM 32.6817 -94.8342 245° Southwest 368 423 38,000  Level Fort Worth Center
Thu 03:14:27 PM 32.6400 -94.9414 245° Southwest 368 423 38,000  Level Fort Worth Center
Thu 03:15:27 PM 32.5961 -95.0436 243° Southwest 363 418 38,000  Level Fort Worth Center
Thu 03:16:27 PM 32.5519 -95.1458 243° Southwest 358 412 38,000  Level Fort Worth Center
Thu 03:17:27 PM 32.5100 -95.2506 245° Southwest 358 412 38,000  Level Fort Worth Center
Thu 03:18:27 PM 32.4722 -95.3597 248° West 358 412 38,000  Level Fort Worth Center
Thu 03:19:27 PM 32.4300 -95.4639 244° Southwest 358 412 38,000  Level Fort Worth Center
Thu 03:20:27 PM 32.3856 -95.5683 243° Southwest 358 412 38,000  Level Fort Worth Center
Thu 03:21:27 PM 32.3433 -95.6700 244° Southwest 358 412 38,000  Level Fort Worth Center
Thu 03:22:27 PM 32.2986 -95.7742 243° Southwest 358 412 38,000  Level Fort Worth Center
Thu 03:23:27 PM 32.2583 -95.8756 245° Southwest 358 412 38,000  Level Fort Worth Center
Thu 03:24:27 PM 32.2156 -95.9769 244° Southwest 351 404 38,000  Level Fort Worth Center
Thu 03:25:27 PM 32.1731 -96.0831 245° Southwest 351 404 38,000  Level Fort Worth Center
Thu 03:26:27 PM 32.1258 -96.1844 241° Southwest 351 404 38,000  Level Fort Worth Center
Thu 03:27:27 PM 32.0853 -96.2878 245° Southwest 345 397 38,000  Level Fort Worth Center
Thu 03:28:27 PM 32.0400 -96.3914 243° Southwest 345 397 38,000 -200 Level Fort Worth Center
Thu 03:29:27 PM 31.9969 -96.4947 244° Southwest 345 397 37,600 -950 Descending Fort Worth Center
Thu 03:30:27 PM 31.9497 -96.6031 243° Southwest 358 412 36,100 -1,550 Descending Fort Worth Center
Thu 03:31:27 PM 31.9003 -96.7233 244° Southwest 363 418 34,500 -1,550 Descending Fort Worth Center
Thu 03:32:27 PM 31.8550 -96.8289 243° Southwest 363 418 33,000 -1,500 Descending Fort Worth Center
Thu 03:33:27 PM 31.8094 -96.9294 242° Southwest 363 418 31,500 -1,500 Descending Fort Worth Center
Thu 03:34:27 PM 31.7661 -97.0369 245° Southwest 363 418 30,000 -1,509 Descending Fort Worth Center
Thu 03:36:10 PM 31.6964 -97.1931 242° Southwest 337 388 27,400 -1,455 Descending Houston Center
Thu 03:37:12 PM 31.6244 -97.2636 220° Southwest 365 420 26,000 -1,403 Descending Houston Center
Thu 03:38:14 PM 31.5092 -97.2500 174° South 411 473 24,500 -1,452 Descending Houston Center
Thu 03:39:16 PM 31.3908 -97.2325 173° South 421 484 23,000 -1,887 Descending Houston Center
Thu 03:40:18 PM 31.2611 -97.2164 174° South 401 461 20,600 -1,440 Descending Houston Center
Thu 03:41:21 PM 31.1625 -97.2278 186° South 361 415 20,000 -528 Descending Houston Center
Thu 03:42:23 PM 31.0753 -97.2614 198° South 330 380 19,500 -1,355 Descending Houston Center
Thu 03:43:25 PM 30.9897 -97.2953 199° South 326 375 17,200 -2,323 Descending Houston Center
Thu 03:44:27 PM 30.8936 -97.3317 198° South 322 371 14,700 -2,274 Descending Houston Center
Thu 03:45:29 PM 30.8133 -97.3619 198° South 309 356 12,500 -2,129 Descending Houston Center
Thu 03:46:31 PM 30.7347 -97.3919 198° South 299 344 10,300 -1,403 Descending Houston Center
Thu 03:47:33 PM 30.6633 -97.4194 198° South 277 319 9,600 -629 Descending Houston Center
Thu 03:48:35 PM 30.5967 -97.4444 198° South 252 290 9,000 -624 Descending Houston Center
Thu 03:49:38 PM 30.5339 -97.4692 199° South 242 278 8,300 -1,200 Descending Houston Center
Thu 03:50:40 PM 30.4725 -97.4925 198° South 232 267 6,500 -1,113 Descending Houston Center
Thu 03:51:42 PM 30.3939 -97.5044 187° South 248 285 6,000 -242 Descending Houston Center
Thu 03:52:44 PM 30.3228 -97.4789 163° South 266 306 6,000  Level Houston Center
Thu 03:53:47 PM 30.2514 -97.4781 179° South 257 296 6,000  Level Houston Center
Thu 03:54:48 PM 30.1847 -97.4911 190° South 243 280 6,000 -195 Level Houston Center
Thu 03:55:50 PM 30.1153 -97.5039 189° South 247 284 5,600 -726 Descending Houston Center
Thu 03:56:52 PM 30.0483 -97.5181 190° South 251 289 4,500 -1,161 Descending Houston Center
Thu 03:57:54 PM 29.9642 -97.5453 196° South 259 298 3,200 -960 Descending Houston Center
Thu 03:58:57 PM 29.9717 -97.6006 279° West 206 237 2,500 -336 Descending Houston Center
Thu 03:59:59 PM 30.0172 -97.6264 334° Northwest 184 212 2,500  Level Houston Center
Thu 04:01:01 PM 30.0636 -97.6569 330° Northwest 189 217 2,500 -387 Level Houston Center
Thu 04:02:03 PM 30.1186 -97.6558 North 184 212 1,700 -629 Descending Houston Center
Thu 04:03:05 PM 30.1542 -97.6567 359° North 161 185 1,200 -484 Descending Houston Center

Login

Don't have an account? Register now (free) for customized features, flight alerts, and more!